Time;durP1;ratioP1;P1;durP2;ratioP2;P2;SDS_P1;SDS_P2;PMS_P1;PMS_P2;Temp;Humidity;BMP_temperature;BMP_pressure;BME280_temperature;BME280_humidity;BME280_pressure;Samples;Min_cycle;Max_cycle;Signal;HPM_P1;HPM_P2
2021/04/16 00:00:36;;;;;;;4.72;2.85;;;1.30;91.70;;;;;;5067505;28;20045;-81
2021/04/16 00:03:03;;;;;;;4.68;2.83;;;1.30;91.60;;;;;;5071993;28;20394;-81
2021/04/16 00:05:28;;;;;;;3.53;2.97;;;1.20;91.80;;;;;;5065182;28;20115;-81
2021/04/16 00:07:55;;;;;;;7.03;3.75;;;1.20;92.20;;;;;;5068145;28;20405;-80
2021/04/16 00:10:28;;;;;;;5.57;4.10;;;1.20;92.40;;;;;;5067383;28;20515;-81
2021/04/16 00:12:56;;;;;;;6.78;3.67;;;1.20;92.80;;;;;;5060901;28;20033;-80
2021/04/16 00:15:24;;;;;;;3.78;2.88;;;1.20;92.50;;;;;;5071303;28;20378;-80
2021/04/16 00:17:50;;;;;;;4.25;3.47;;;1.20;92.60;;;;;;5065782;28;20037;-80
2021/04/16 00:20:21;;;;;;;5.03;2.78;;;1.20;92.90;;;;;;5054534;28;20060;-80
2021/04/16 00:22:47;;;;;;;5.45;3.50;;;1.20;92.60;;;;;;5065604;28;20044;-81
2021/04/16 00:25:16;;;;;;;5.28;4.05;;;1.20;92.70;;;;;;5070562;28;20033;-81
2021/04/16 00:27:42;;;;;;;5.82;2.88;;;1.20;92.70;;;;;;5061864;28;20036;-80
2021/04/16 00:30:10;;;;;;;6.28;3.63;;;1.20;92.90;;;;;;5068759;28;20028;-81
2021/04/16 00:32:36;;;;;;;5.35;3.50;;;1.20;92.80;;;;;;5064066;28;20420;-81
2021/04/16 00:35:05;;;;;;;8.60;3.72;;;1.20;92.90;;;;;;5061617;28;20075;-81
2021/04/16 00:37:31;;;;;;;5.35;3.60;;;1.10;93.30;;;;;;5063670;28;20060;-81
2021/04/16 00:39:57;;;;;;;5.03;3.38;;;1.10;93.30;;;;;;5065446;28;20033;-81
2021/04/16 00:42:22;;;;;;;7.25;4.30;;;1.10;93.10;;;;;;5057513;28;20508;-81
2021/04/16 00:44:48;;;;;;;5.78;3.33;;;1.10;93.00;;;;;;5062588;28;20044;-81
2021/04/16 00:47:17;;;;;;;6.00;2.97;;;1.10;92.90;;;;;;5060387;28;20061;-81
2021/04/16 00:49:49;;;;;;;5.82;3.67;;;1.00;93.20;;;;;;5062668;28;20053;-81
2021/04/16 00:52:23;;;;;;;4.00;3.30;;;1.00;92.90;;;;;;5063969;28;20064;-81
2021/04/16 00:54:49;;;;;;;6.18;3.42;;;1.00;93.30;;;;;;5061161;28;20061;-80
2021/04/16 00:57:18;;;;;;;5.82;3.33;;;0.90;93.20;;;;;;5083764;28;20442;-80
2021/04/16 00:59:48;;;;;;;7.68;3.83;;;0.90;93.40;;;;;;5058924;28;20048;-80
2021/04/16 01:02:14;;;;;;;8.07;3.30;;;0.90;93.40;;;;;;5061703;28;20067;-80
2021/04/16 01:04:40;;;;;;;5.43;3.53;;;0.90;93.30;;;;;;5062178;28;20052;-80
2021/04/16 01:07:07;;;;;;;6.20;3.03;;;0.90;93.80;;;;;;5065288;28;20033;-80
2021/04/16 01:09:34;;;;;;;4.82;2.92;;;0.90;93.90;;;;;;5054654;28;20059;-80
2021/04/16 01:12:04;;;;;;;7.53;3.67;;;0.80;93.40;;;;;;5065956;28;20032;-80
2021/04/16 01:14:31;;;;;;;5.57;3.08;;;0.80;93.50;;;;;;5065466;28;20060;-80
2021/04/16 01:16:57;;;;;;;6.10;3.83;;;0.80;93.60;;;;;;5070387;28;20457;-80
2021/04/16 01:19:37;;;;;;;6.22;3.58;;;0.80;93.80;;;;;;5059331;28;20136;-80
2021/04/16 01:22:22;;;;;;;6.22;3.53;;;0.80;93.90;;;;;;5065559;28;20036;-81
2021/04/16 01:24:49;;;;;;;6.18;3.35;;;0.80;94.10;;;;;;5052979;28;20057;-80
2021/04/16 01:27:14;;;;;;;7.57;3.92;;;0.80;94.50;;;;;;5059097;28;20457;-81
2021/04/16 01:29:46;;;;;;;5.32;2.95;;;0.80;94.30;;;;;;5060512;28;20036;-81
2021/04/16 01:32:20;;;;;;;6.63;3.83;;;0.80;94.20;;;;;;5055426;28;20044;-81
2021/04/16 01:34:46;;;;;;;5.13;3.60;;;0.80;94.50;;;;;;5060713;28;20049;-81
2021/04/16 01:37:12;;;;;;;8.43;3.55;;;0.80;94.40;;;;;;5064001;28;20071;-81
2021/04/16 01:39:38;;;;;;;5.38;3.63;;;0.80;94.40;;;;;;5054147;28;20055;-81
2021/04/16 01:42:04;;;;;;;5.53;4.10;;;0.80;94.50;;;;;;5056808;28;20093;-81
2021/04/16 01:44:30;;;;;;;8.30;3.90;;;0.80;94.40;;;;;;5060815;28;20044;-81
2021/04/16 01:47:03;;;;;;;8.27;4.60;;;0.80;94.60;;;;;;5052488;28;20053;-81
2021/04/16 01:49:41;;;;;;;7.70;4.00;;;0.80;94.40;;;;;;5060556;28;20028;-81
2021/04/16 01:52:12;;;;;;;17.42;3.72;;;0.80;94.40;;;;;;5056286;28;23734;-80
2021/04/16 01:54:44;;;;;;;6.20;4.05;;;0.70;94.30;;;;;;5051018;28;20052;-80
2021/04/16 01:57:13;;;;;;;7.75;3.83;;;0.70;94.60;;;;;;5056542;28;20075;-80
2021/04/16 01:59:41;;;;;;;8.60;3.58;;;0.70;94.40;;;;;;5067384;28;20042;-80
2021/04/16 02:02:12;;;;;;;4.97;3.08;;;0.70;94.30;;;;;;5057422;28;20105;-80
2021/04/16 02:04:38;;;;;;;6.15;3.60;;;0.70;94.20;;;;;;5060502;28;20041;-80
2021/04/16 02:07:06;;;;;;;6.40;3.85;;;0.60;94.10;;;;;;5059777;28;20148;-79
2021/04/16 02:09:35;;;;;;;5.93;3.90;;;0.50;94.10;;;;;;5062859;28;20041;-79
2021/04/16 02:12:02;;;;;;;6.85;3.65;;;0.50;94.30;;;;;;5052629;28;20045;-80
2021/04/16 02:14:31;;;;;;;6.97;4.35;;;0.50;94.40;;;;;;5059558;28;20143;-80
2021/04/16 02:17:01;;;;;;;9.82;4.55;;;0.50;94.70;;;;;;5058522;28;20044;-80
2021/04/16 02:19:28;;;;;;;7.22;3.75;;;0.50;95.00;;;;;;5059676;28;20048;-79
2021/04/16 02:21:54;;;;;;;7.28;4.15;;;0.40;94.60;;;;;;5054870;28;20037;-80
2021/04/16 02:24:20;;;;;;;7.22;3.85;;;0.40;94.60;;;;;;5057937;28;20037;-79
2021/04/16 02:26:46;;;;;;;8.85;3.88;;;0.40;94.60;;;;;;5060205;28;20032;-80
2021/04/16 02:29:14;;;;;;;9.35;5.00;;;0.40;94.70;;;;;;5064439;28;20040;-80
2021/04/16 02:31:42;;;;;;;7.68;4.32;;;0.30;94.80;;;;;;5060414;28;20041;-79
2021/04/16 02:34:10;;;;;;;11.40;4.63;;;0.30;94.70;;;;;;5065834;28;20127;-79
2021/04/16 02:36:36;;;;;;;13.20;5.68;;;0.30;95.00;;;;;;5061951;28;20040;-80
2021/04/16 02:39:04;;;;;;;7.50;4.88;;;0.30;95.20;;;;;;5067712;28;20131;-81
2021/04/16 02:41:30;;;;;;;8.95;4.75;;;0.40;95.50;;;;;;5066801;28;20078;-80
2021/04/16 02:43:55;;;;;;;6.82;4.22;;;0.30;95.50;;;;;;5061711;28;20131;-80
2021/04/16 02:46:21;;;;;;;9.13;5.07;;;0.30;95.40;;;;;;5060402;28;20033;-80
2021/04/16 02:48:47;;;;;;;10.10;5.28;;;0.30;95.70;;;;;;5061120;28;20048;-80
2021/04/16 02:51:14;;;;;;;6.18;4.03;;;0.40;95.90;;;;;;5070798;28;20065;-79
2021/04/16 02:53:41;;;;;;;7.93;4.82;;;0.40;96.00;;;;;;5053291;28;20060;-79
2021/04/16 02:56:07;;;;;;;8.35;4.32;;;0.30;95.60;;;;;;5066372;28;20037;-79
2021/04/16 02:58:33;;;;;;;6.10;4.25;;;0.30;95.50;;;;;;5061447;28;20040;-80
2021/04/16 03:00:59;;;;;;;9.32;4.60;;;0.30;95.40;;;;;;5056569;28;20044;-79
2021/04/16 03:03:24;;;;;;;6.90;4.18;;;0.30;95.50;;;;;;5055724;28;20106;-80
2021/04/16 03:05:52;;;;;;;9.30;5.15;;;0.30;95.50;;;;;;5065975;28;20045;-80
2021/04/16 03:08:19;;;;;;;8.43;4.82;;;0.20;95.50;;;;;;5065728;28;20056;-80
2021/04/16 03:10:45;;;;;;;7.80;5.00;;;0.20;95.80;;;;;;5064103;28;20037;-80
2021/04/16 03:13:10;;;;;;;8.52;5.45;;;0.20;95.60;;;;;;5061670;28;20041;-80
2021/04/16 03:15:38;;;;;;;7.88;5.25;;;0.20;95.60;;;;;;5066995;28;20099;-81
2021/04/16 03:18:04;;;;;;;12.10;5.00;;;0.20;95.60;;;;;;5064818;28;20084;-81
2021/04/16 03:20:30;;;;;;;12.38;5.53;;;0.10;95.70;;;;;;5059792;28;20135;-80
2021/04/16 03:22:55;;;;;;;10.32;6.13;;;0.10;95.70;;;;;;5064621;28;20309;-81
2021/04/16 03:25:21;;;;;;;9.15;5.70;;;0.10;95.60;;;;;;5056714;28;20064;-81
2021/04/16 03:27:47;;;;;;;12.88;6.88;;;0.10;95.70;;;;;;5060568;28;20047;-81
2021/04/16 03:30:18;;;;;;;9.10;5.57;;;0.10;95.90;;;;;;5057709;28;20322;-83
2021/04/16 03:32:44;;;;;;;9.45;6.25;;;0.10;96.20;;;;;;5063794;28;20036;-82
2021/04/16 03:35:10;;;;;;;7.15;4.85;;;0.10;96.10;;;;;;5060638;28;20044;-82
2021/04/16 03:37:37;;;;;;;9.20;4.90;;;0.10;96.00;;;;;;5073759;28;20480;-82
2021/04/16 03:40:04;;;;;;;9.77;6.28;;;0.10;95.80;;;;;;5059033;28;20053;-79
2021/04/16 03:42:29;;;;;;;6.53;5.05;;;0.00;95.80;;;;;;5061522;28;20041;-79
2021/04/16 03:44:55;;;;;;;12.27;6.30;;;0.00;95.70;;;;;;5055812;28;20404;-78
2021/04/16 03:47:21;;;;;;;9.30;5.28;;;0.00;95.70;;;;;;5041645;28;20053;-77
2021/04/16 03:49:47;;;;;;;9.23;6.22;;;-0.10;95.80;;;;;;5054146;28;20371;-77
2021/04/16 03:52:12;;;;;;;13.23;6.60;;;0.00;95.90;;;;;;5058681;28;20119;-78
2021/04/16 03:54:40;;;;;;;10.77;5.70;;;0.00;96.10;;;;;;5054156;28;20560;-79
2021/04/16 03:57:09;;;;;;;9.30;5.63;;;0.00;96.00;;;;;;5057707;28;20037;-78
2021/04/16 03:59:35;;;;;;;8.65;5.60;;;-0.10;95.80;;;;;;5062251;28;20188;-78
2021/04/16 04:02:01;;;;;;;9.70;5.75;;;-0.10;95.90;;;;;;5057643;28;20044;-78
2021/04/16 04:04:26;;;;;;;9.50;5.75;;;-0.10;95.80;;;;;;5063600;28;20104;-78
2021/04/16 04:06:52;;;;;;;12.60;6.80;;;-0.10;96.00;;;;;;5055780;28;20633;-78
2021/04/16 04:09:18;;;;;;;11.90;6.70;;;-0.10;96.10;;;;;;5069360;28;20548;-78
2021/04/16 04:11:44;;;;;;;10.68;6.43;;;-0.10;96.30;;;;;;5058576;28;20052;-79
2021/04/16 04:14:10;;;;;;;9.07;5.35;;;-0.10;96.70;;;;;;5070640;28;20074;-79
2021/04/16 04:16:54;;;;;;;11.32;5.47;;;-0.10;97.00;;;;;;5054239;28;20085;-79
2021/04/16 04:19:21;;;;;;;11.80;6.00;;;-0.10;96.50;;;;;;5062900;28;20052;-79
2021/04/16 04:22:07;;;;;;;13.07;5.95;;;-0.10;96.40;;;;;;5060782;28;20053;-79
2021/04/16 04:24:32;;;;;;;9.30;5.47;;;-0.20;96.30;;;;;;5061939;28;20048;-79
2021/04/16 04:26:58;;;;;;;10.30;6.03;;;-0.20;96.20;;;;;;5059013;28;20207;-79
2021/04/16 04:29:25;;;;;;;10.00;6.60;;;-0.20;96.20;;;;;;5058783;28;20036;-79
2021/04/16 04:31:51;;;;;;;11.35;5.70;;;-0.20;96.90;;;;;;5055737;28;20083;-79
2021/04/16 04:34:21;;;;;;;14.32;7.20;;;-0.20;96.60;;;;;;5059732;28;20076;-78
2021/04/16 04:36:49;;;;;;;10.00;6.13;;;-0.10;96.80;;;;;;5058139;28;20110;-79
2021/04/16 04:39:15;;;;;;;9.13;5.80;;;-0.20;96.50;;;;;;5068201;28;20064;-79
2021/04/16 04:41:42;;;;;;;10.45;5.32;;;-0.20;96.60;;;;;;5057671;28;20056;-79
2021/04/16 04:44:09;;;;;;;12.07;6.07;;;-0.20;96.60;;;;;;5064340;28;20485;-80
2021/04/16 04:46:35;;;;;;;8.43;5.82;;;-0.10;96.60;;;;;;5071362;28;20048;-79
2021/04/16 04:49:02;;;;;;;10.00;6.15;;;-0.20;96.50;;;;;;5078931;28;20052;-79
2021/04/16 04:51:28;;;;;;;11.63;6.38;;;-0.20;96.70;;;;;;5067141;28;20151;-80
2021/04/16 04:53:54;;;;;;;7.47;5.82;;;-0.20;96.60;;;;;;5056256;28;20047;-80
2021/04/16 04:56:21;;;;;;;9.20;5.88;;;-0.10;96.70;;;;;;5067683;28;20049;-80
2021/04/16 04:58:46;;;;;;;7.93;4.57;;;-0.10;96.70;;;;;;5056628;28;20441;-79
2021/04/16 05:01:12;;;;;;;9.20;5.13;;;-0.10;96.70;;;;;;5067972;28;20139;-80
2021/04/16 05:03:38;;;;;;;8.38;5.55;;;-0.10;96.60;;;;;;5066648;28;20136;-80
2021/04/16 05:06:04;;;;;;;8.80;5.20;;;-0.10;96.60;;;;;;5066290;28;20044;-80
2021/04/16 05:08:30;;;;;;;8.48;4.50;;;-0.10;96.60;;;;;;5060190;28;20076;-80
2021/04/16 05:10:55;;;;;;;13.02;6.07;;;0.00;96.70;;;;;;5067202;28;20029;-80
2021/04/16 05:13:21;;;;;;;7.80;5.80;;;0.00;96.70;;;;;;5052466;28;20048;-80
2021/04/16 05:15:47;;;;;;;10.65;5.90;;;0.00;96.70;;;;;;5071125;28;20049;-81
2021/04/16 05:18:13;;;;;;;12.02;5.95;;;0.00;96.80;;;;;;5036876;28;20080;-80
2021/04/16 05:20:39;;;;;;;10.38;6.63;;;0.10;96.90;;;;;;5059344;28;20049;-80
2021/04/16 05:23:04;;;;;;;13.57;7.50;;;0.20;97.00;;;;;;5064269;28;20041;-79
2021/04/16 05:25:33;;;;;;;14.98;8.82;;;0.40;97.30;;;;;;5046890;28;20373;-80
2021/04/16 05:27:59;;;;;;;14.65;9.73;;;0.60;97.40;;;;;;5057117;28;20097;-81
2021/04/16 05:30:25;;;;;;;12.93;8.10;;;0.80;98.00;;;;;;5062175;28;20071;-81
2021/04/16 05:32:51;;;;;;;20.58;14.35;;;1.10;97.80;;;;;;5062485;28;20045;-80
2021/04/16 05:35:17;;;;;;;18.35;11.10;;;1.30;97.60;;;;;;5059677;28;20068;-79
2021/04/16 05:37:43;;;;;;;15.40;7.63;;;1.50;97.70;;;;;;5064248;28;20136;-79
2021/04/16 05:40:10;;;;;;;11.43;7.28;;;1.70;97.70;;;;;;5054900;28;20484;-79
2021/04/16 05:42:36;;;;;;;10.30;6.78;;;2.00;97.30;;;;;;5062233;28;20086;-79
2021/04/16 05:45:04;;;;;;;8.98;5.78;;;2.20;97.20;;;;;;5059469;28;20080;-79
2021/04/16 05:47:31;;;;;;;35.20;23.38;;;2.40;97.10;;;;;;5070414;28;20048;-79
2021/04/16 05:49:56;;;;;;;20.73;12.13;;;2.50;97.00;;;;;;5059165;28;20588;-79
2021/04/16 05:52:22;;;;;;;10.25;7.35;;;2.70;97.30;;;;;;5058822;28;20040;-79
2021/04/16 05:54:48;;;;;;;11.65;5.97;;;2.90;97.10;;;;;;5063349;28;21530;-80
2021/04/16 05:57:16;;;;;;;11.90;5.50;;;3.20;96.90;;;;;;5063468;28;20412;-79
2021/04/16 05:59:43;;;;;;;11.48;5.82;;;3.50;96.70;;;;;;5055160;28;20037;-79
2021/04/16 06:02:31;;;;;;;12.00;6.40;;;3.70;96.50;;;;;;5060419;28;20059;-80
2021/04/16 06:05:18;;;;;;;10.50;6.05;;;3.90;96.10;;;;;;5051959;28;20047;-80
2021/04/16 06:07:46;;;;;;;13.43;6.18;;;4.10;95.90;;;;;;5067579;28;20550;-80
2021/04/16 06:10:14;;;;;;;12.27;5.35;;;4.40;95.80;;;;;;5038085;28;20057;-78
2021/04/16 06:12:45;;;;;;;10.30;5.30;;;4.70;95.80;;;;;;5061830;28;20032;-79
2021/04/16 06:15:17;;;;;;;11.32;5.53;;;4.90;95.30;;;;;;5051326;28;20112;-78
2021/04/16 06:17:44;;;;;;;12.60;5.75;;;5.10;94.80;;;;;;5043638;28;20053;-78
2021/04/16 06:20:13;;;;;;;10.25;5.45;;;5.20;94.60;;;;;;5056740;28;20049;-78
2021/04/16 06:22:39;;;;;;;15.32;6.10;;;5.40;94.50;;;;;;5051952;28;20067;-78
2021/04/16 06:25:11;;;;;;;11.20;5.75;;;5.50;94.30;;;;;;5056469;28;20045;-78
2021/04/16 06:27:37;;;;;;;12.98;5.95;;;5.70;94.20;;;;;;5057716;28;20154;-78
2021/04/16 06:30:05;;;;;;;10.50;5.25;;;5.90;93.90;;;;;;5053993;28;20198;-78
2021/04/16 06:32:31;;;;;;;8.60;5.13;;;6.00;93.60;;;;;;5048078;28;20052;-78
2021/04/16 06:34:57;;;;;;;13.98;5.30;;;6.10;93.40;;;;;;5059973;28;20052;-79
2021/04/16 06:37:27;;;;;;;18.05;5.38;;;6.20;93.10;;;;;;5058738;28;20045;-79
2021/04/16 06:39:53;;;;;;;7.93;4.15;;;6.40;93.00;;;;;;5056528;28;20126;-78
2021/04/16 06:42:28;;;;;;;9.70;4.97;;;6.60;92.70;;;;;;5048739;28;20033;-79
2021/04/16 06:45:02;;;;;;;10.80;4.05;;;6.80;92.40;;;;;;5060626;28;20381;-78
2021/04/16 06:47:52;;;;;;;14.15;4.82;;;7.00;92.10;;;;;;5051508;28;20040;-78
2021/04/16 06:50:20;;;;;;;13.82;4.72;;;7.20;91.40;;;;;;5058625;28;20091;-78
2021/04/16 06:53:22;;;;;;;12.57;8.00;;;7.40;91.00;;;;;;5054502;28;20052;-78
2021/04/16 06:55:48;;;;;;;8.88;3.97;;;7.60;90.60;;;;;;5055787;28;20054;-78
2021/04/16 06:58:40;;;;;;;9.75;3.97;;;7.80;90.50;;;;;;5051631;28;20049;-79
2021/04/16 07:01:35;;;;;;;10.10;3.85;;;8.10;90.20;;;;;;5058149;28;20045;-81
2021/04/16 07:04:26;;;;;;;12.48;3.45;;;8.50;88.70;;;;;;5050169;28;20065;-79
2021/04/16 07:06:59;;;;;;;8.85;4.18;;;8.50;87.90;;;;;;5056308;28;20037;-79
2021/04/16 07:09:35;;;;;;;10.88;3.88;;;8.60;87.40;;;;;;5054717;28;20037;-80
2021/04/16 07:12:19;;;;;;;13.20;3.50;;;8.80;86.90;;;;;;5058969;28;20063;-79
2021/04/16 07:15:06;;;;;;;7.55;3.30;;;9.00;85.80;;;;;;5059313;28;20115;-79
2021/04/16 07:17:39;;;;;;;12.73;3.40;;;9.20;84.40;;;;;;5055714;28;20041;-79
2021/04/16 07:20:10;;;;;;;7.38;3.25;;;9.50;84.20;;;;;;5056494;28;20073;-79
2021/04/16 07:22:43;;;;;;;8.93;2.80;;;9.70;84.00;;;;;;5045382;28;20049;-79
2021/04/16 07:25:16;;;;;;;6.43;2.70;;;10.00;81.70;;;;;;5054342;28;20033;-80
2021/04/16 07:27:48;;;;;;;8.85;3.20;;;10.20;79.20;;;;;;5048329;28;20118;-78
2021/04/16 07:30:47;;;;;;;7.72;2.35;;;10.30;78.20;;;;;;5062048;28;20037;-80
2021/04/16 07:33:37;;;;;;;7.55;2.28;;;10.60;77.40;;;;;;5043340;28;20090;-79
2021/04/16 07:36:40;;;;;;;12.60;5.63;;;11.10;75.10;;;;;;5059450;28;20119;-79
2021/04/16 07:39:16;;;;;;;8.30;2.88;;;11.40;70.60;;;;;;5069684;28;20091;-80
2021/04/16 07:41:46;;;;;;;13.40;5.80;;;11.50;72.80;;;;;;5057411;28;20483;-81
2021/04/16 07:44:39;;;;;;;4.68;2.03;;;11.60;71.90;;;;;;5049919;28;20045;-80
2021/04/16 07:47:29;;;;;;;6.50;1.83;;;11.70;69.90;;;;;;5036710;28;20127;-80
2021/04/16 07:50:13;;;;;;;5.40;1.63;;;11.70;67.10;;;;;;5049904;28;20465;-79
2021/04/16 07:52:47;;;;;;;4.50;1.50;;;11.50;66.90;;;;;;5060025;28;20041;-80
2021/04/16 07:55:29;;;;;;;5.03;1.60;;;11.70;66.50;;;;;;5061310;28;20045;-80
2021/04/16 07:58:28;;;;;;;6.45;1.92;;;12.00;60.00;;;;;;5049919;28;20041;-80
2021/04/16 08:01:31;;;;;;;5.32;1.33;;;11.90;59.20;;;;;;5013631;28;20137;-80
2021/04/16 08:04:43;;;;;;;4.13;1.47;;;11.90;56.30;;;;;;5065238;28;20123;-79
2021/04/16 08:07:35;;;;;;;5.13;1.38;;;11.90;56.30;;;;;;5060963;28;20675;-80
2021/04/16 08:10:20;;;;;;;2.53;1.30;;;12.10;57.30;;;;;;5059508;28;20080;-80
2021/04/16 08:13:04;;;;;;;4.32;1.08;;;12.20;57.00;;;;;;5038046;28;20044;-80
2021/04/16 08:15:38;;;;;;;4.13;1.27;;;12.30;58.20;;;;;;5057973;28;20461;-80
2021/04/16 08:18:08;;;;;;;4.53;1.02;;;12.40;58.40;;;;;;5057215;28;20036;-80
2021/04/16 08:21:06;;;;;;;3.10;1.13;;;12.30;54.40;;;;;;5061557;28;20505;-80
2021/04/16 08:23:53;;;;;;;3.13;1.05;;;12.30;53.40;;;;;;5061247;28;20465;-80
2021/04/16 08:26:45;;;;;;;2.08;0.68;;;12.30;52.90;;;;;;5037449;28;20100;-80
2021/04/16 08:29:40;;;;;;;3.15;0.95;;;12.40;50.70;;;;;;5063588;28;20051;-80
2021/04/16 08:32:47;;;;;;;2.75;1.00;;;12.30;48.70;;;;;;5051354;28;20045;-80
2021/04/16 08:35:31;;;;;;;5.30;1.35;;;12.30;47.90;;;;;;5065203;28;20044;-80
2021/04/16 08:38:09;;;;;;;;;;;12.30;51.20;;;;;;5052289;28;20183;-80
2021/04/16 08:41:14;;;;;;;6.68;3.42;;;12.30;48.50;;;;;;5058412;28;19923;-79
2021/04/16 08:44:20;;;;;;;3.42;1.50;;;12.20;49.60;;;;;;5067578;28;20056;-80
2021/04/16 08:46:59;;;;;;;1.92;0.82;;;12.40;46.60;;;;;;5057516;28;20103;-80
2021/04/16 08:49:45;;;;;;;2.60;0.73;;;12.40;49.10;;;;;;5066066;28;20041;-80
2021/04/16 08:52:41;;;;;;;2.70;0.90;;;12.40;47.00;;;;;;5075669;28;20045;-80
2021/04/16 08:55:47;;;;;;;2.85;0.70;;;12.30;48.20;;;;;;5050095;28;20070;-81
2021/04/16 08:58:37;;;;;;;2.47;0.80;;;12.00;47.40;;;;;;5063552;28;20044;-81
2021/04/16 09:01:16;;;;;;;2.42;0.63;;;12.00;49.70;;;;;;5063872;28;20126;-81
2021/04/16 09:03:54;;;;;;;2.85;0.50;;;12.20;48.40;;;;;;5044253;28;20086;-80
2021/04/16 09:06:35;;;;;;;2.80;0.73;;;12.30;48.30;;;;;;5062164;28;20049;-80
2021/04/16 09:09:06;;;;;;;1.05;0.50;;;12.30;45.40;;;;;;5057690;28;20048;-80
2021/04/16 09:11:53;;;;;;;1.48;0.68;;;12.30;46.50;;;;;;5062212;28;20431;-80
2021/04/16 09:14:23;;;;;;;1.65;0.52;;;12.30;44.50;;;;;;5066318;28;20056;-80
2021/04/16 09:16:55;;;;;;;1.70;0.70;;;12.20;44.70;;;;;;5068453;28;20045;-79
2021/04/16 09:19:27;;;;;;;2.65;0.80;;;12.20;45.50;;;;;;5074649;28;20072;-81
2021/04/16 09:22:24;;;;;;;3.13;0.60;;;12.10;45.20;;;;;;5067560;28;20104;-78
2021/04/16 09:24:57;;;;;;;4.00;0.80;;;12.20;45.70;;;;;;5063995;28;20079;-80
2021/04/16 09:27:41;;;;;;;1.98;0.60;;;12.30;45.10;;;;;;5057580;28;20684;-79
2021/04/16 09:30:10;;;;;;;1.27;0.55;;;12.30;43.40;;;;;;5065437;28;20071;-78
2021/04/16 09:33:17;;;;;;;2.30;0.60;;;12.40;45.80;;;;;;5049050;28;20075;-79
2021/04/16 09:36:07;;;;;;;1.92;0.55;;;12.40;44.20;;;;;;5069316;28;20064;-82
2021/04/16 09:39:16;;;;;;;2.70;0.68;;;12.30;45.30;;;;;;5042798;28;20140;-78
2021/04/16 09:41:45;;;;;;;2.33;0.43;;;12.40;43.80;;;;;;5066408;28;20041;-80
2021/04/16 09:44:43;;;;;;;3.35;0.70;;;12.20;45.60;;;;;;5064648;28;20116;-81
2021/04/16 09:47:09;;;;;;;1.40;0.68;;;12.20;43.90;;;;;;5066668;28;20672;-81
2021/04/16 09:49:41;;;;;;;2.10;0.50;;;12.30;46.50;;;;;;5068099;28;20051;-80
2021/04/16 09:52:35;;;;;;;3.22;0.77;;;12.50;45.60;;;;;;5071111;28;20033;-80
2021/04/16 09:55:00;;;;;;;1.55;0.40;;;12.50;44.50;;;;;;5066106;28;20768;-78
2021/04/16 09:57:40;;;;;;;2.55;1.50;;;12.60;45.20;;;;;;5051981;28;20045;-80
2021/04/16 10:00:47;;;;;;;1.38;0.47;;;12.60;45.30;;;;;;5061189;28;20127;-80
2021/04/16 10:03:32;;;;;;;4.25;0.65;;;12.60;44.30;;;;;;5068102;28;20061;-78
2021/04/16 10:06:33;;;;;;;2.30;0.65;;;12.70;45.40;;;;;;5059636;28;20068;-80
2021/04/16 10:09:18;;;;;;;2.10;0.88;;;12.70;44.10;;;;;;5064563;28;20041;-79
2021/04/16 10:11:59;;;;;;;1.45;0.50;;;12.60;43.30;;;;;;5067670;28;20060;-81
2021/04/16 10:14:35;;;;;;;2.88;0.90;;;12.50;44.90;;;;;;5054935;28;20446;-82
2021/04/16 10:17:18;;;;;;;2.58;0.80;;;12.60;46.10;;;;;;5063145;28;20123;-81
2021/04/16 10:19:49;;;;;;;2.55;0.90;;;12.70;43.80;;;;;;5044483;28;20140;-81
2021/04/16 10:22:33;;;;;;;1.77;0.60;;;12.70;45.10;;;;;;5070074;28;20049;-81
2021/04/16 12:38:51;;;;;;;4.30;1.20;;;12.70;45.40;;;;;;5060611;28;20051;-77
2021/04/16 12:41:25;;;;;;;6.22;2.83;;;12.50;46.10;;;;;;5060008;28;20048;-76
2021/04/16 12:43:52;;;;;;;3.72;1.17;;;12.60;46.40;;;;;;5066103;28;20059;-78
2021/04/16 12:46:23;;;;;;;3.08;1.13;;;12.70;46.50;;;;;;5053260;28;20130;-78
2021/04/16 12:48:49;;;;;;;4.72;1.27;;;12.70;46.40;;;;;;5061694;28;20394;-77
2021/04/16 12:51:16;;;;;;;2.80;0.98;;;12.80;47.00;;;;;;5062462;28;20051;-78
2021/04/16 12:53:41;;;;;;;4.20;1.50;;;12.80;46.20;;;;;;5064005;28;20490;-77
2021/04/16 12:56:11;;;;;;;4.95;1.52;;;12.70;46.50;;;;;;5051838;28;20053;-77
2021/04/16 12:58:40;;;;;;;3.22;0.80;;;12.70;46.90;;;;;;5062969;28;20059;-77
2021/04/16 13:01:27;;;;;;;2.85;1.55;;;12.80;45.80;;;;;;5055145;28;20036;-77
2021/04/16 13:03:54;;;;;;;7.13;3.50;;;12.70;44.00;;;;;;5062176;28;20036;-77
2021/04/16 13:06:24;;;;;;;4.38;0.98;;;12.60;45.60;;;;;;5052120;28;20811;-78
2021/04/16 13:08:51;;;;;;;6.18;1.20;;;12.70;45.10;;;;;;5064258;28;20388;-78
2021/04/16 13:11:17;;;;;;;4.50;1.27;;;12.80;45.30;;;;;;5054293;28;20104;-78
2021/04/16 13:13:44;;;;;;;3.13;1.23;;;12.80;46.60;;;;;;5063226;28;20131;-77
2021/04/16 13:16:10;;;;;;;3.95;1.27;;;12.90;46.60;;;;;;5046152;28;20051;-78
2021/04/16 13:18:40;;;;;;;4.15;1.63;;;12.90;46.40;;;;;;5051454;28;20040;-78
2021/04/16 13:21:12;;;;;;;3.97;1.60;;;12.80;47.60;;;;;;5059919;28;20041;-78
2021/04/16 13:23:38;;;;;;;5.20;1.88;;;12.80;47.90;;;;;;5052260;28;20072;-78
2021/04/16 13:26:06;;;;;;;5.10;1.60;;;12.70;48.00;;;;;;5057177;28;20098;-78
2021/04/16 13:28:31;;;;;;;3.60;1.52;;;12.60;48.30;;;;;;5053733;28;20186;-77
2021/04/16 13:30:58;;;;;;;3.47;1.38;;;12.40;48.40;;;;;;5058824;28;20116;-77
2021/04/16 13:33:24;;;;;;;2.45;1.25;;;12.20;48.10;;;;;;5056226;28;20131;-77
2021/04/16 13:35:55;;;;;;;3.10;1.50;;;12.10;48.70;;;;;;5055327;28;20194;-75
2021/04/16 13:38:25;;;;;;;4.90;1.90;;;12.10;49.20;;;;;;5051749;28;20648;-76
2021/04/16 13:40:52;;;;;;;3.15;1.45;;;12.40;49.90;;;;;;5060819;28;20032;-76
2021/04/16 13:43:18;;;;;;;4.28;1.70;;;12.60;49.30;;;;;;5058812;28;20633;-77
2021/04/16 13:45:44;;;;;;;5.68;1.73;;;12.60;48.40;;;;;;5055315;28;20107;-78
2021/04/16 13:48:14;;;;;;;3.58;1.52;;;12.50;48.20;;;;;;5057286;28;20052;-77
2021/04/16 13:50:41;;;;;;;5.25;1.30;;;12.50;48.50;;;;;;5057558;28;20041;-78
2021/04/16 13:53:09;;;;;;;3.10;1.10;;;12.40;48.20;;;;;;5055203;28;20033;-77
2021/04/16 13:55:35;;;;;;;2.08;1.30;;;12.40;47.70;;;;;;5053316;28;20140;-77
2021/04/16 13:58:01;;;;;;;4.38;1.67;;;12.40;47.50;;;;;;5054623;28;20043;-79
2021/04/16 14:00:29;;;;;;;3.38;1.55;;;12.40;47.70;;;;;;5052936;28;20053;-78
2021/04/16 14:03:07;;;;;;;3.47;1.65;;;12.40;47.60;;;;;;5056494;28;20365;-78
2021/04/16 14:05:34;;;;;;;2.85;1.67;;;12.50;47.10;;;;;;5055377;28;20045;-77
2021/04/16 14:08:02;;;;;;;4.45;1.60;;;12.50;47.00;;;;;;5055938;28;20043;-79
2021/04/16 14:10:32;;;;;;;2.28;1.27;;;12.50;47.50;;;;;;5067269;28;20098;-78
2021/04/16 14:12:58;;;;;;;3.33;1.33;;;12.50;48.10;;;;;;5053797;28;20064;-78
2021/04/16 14:15:45;;;;;;;2.53;1.05;;;12.50;47.20;;;;;;5045186;28;20117;-78
2021/04/16 14:18:47;;;;;;;4.18;1.65;;;12.60;46.20;;;;;;5055870;28;20059;-77
2021/04/16 14:21:18;;;;;;;3.58;1.88;;;12.70;45.90;;;;;;5048449;28;20052;-77
2021/04/16 14:23:45;;;;;;;4.38;1.77;;;12.70;46.50;;;;;;5058737;28;20143;-77
2021/04/16 14:26:16;;;;;;;5.20;1.55;;;12.70;46.90;;;;;;5042223;28;20048;-79
2021/04/16 14:28:43;;;;;;;2.95;1.50;;;12.70;46.70;;;;;;5056132;28;20644;-79
2021/04/16 14:31:09;;;;;;;2.75;1.50;;;12.60;46.70;;;;;;5047751;28;20114;-78
2021/04/16 14:33:37;;;;;;;3.28;1.50;;;12.60;46.80;;;;;;5056548;28;20036;-77
2021/04/16 14:36:04;;;;;;;4.47;1.92;;;12.40;45.70;;;;;;5046352;28;20377;-76
2021/04/16 14:38:31;;;;;;;3.50;1.55;;;12.40;46.20;;;;;;5053344;28;20056;-76
2021/04/16 14:40:57;;;;;;;3.20;1.38;;;12.40;46.70;;;;;;5052338;28;20049;-76
2021/04/16 14:43:24;;;;;;;5.57;1.50;;;12.40;47.00;;;;;;5055802;28;20033;-77
2021/04/16 14:45:53;;;;;;;3.17;1.80;;;12.30;47.20;;;;;;5050209;28;20378;-76
2021/04/16 14:48:20;;;;;;;3.75;1.27;;;12.30;47.60;;;;;;5057626;28;20041;-76
2021/04/16 14:50:46;;;;;;;4.95;1.90;;;12.40;48.00;;;;;;5048618;28;20049;-77
2021/04/16 14:53:21;;;;;;;3.83;1.65;;;12.30;47.60;;;;;;5042331;28;20123;-77
2021/04/16 14:55:47;;;;;;;4.90;1.42;;;12.40;47.60;;;;;;5048684;28;20078;-78
2021/04/16 14:58:23;;;;;;;5.47;1.90;;;12.30;47.50;;;;;;5055803;28;20111;-77
2021/04/16 15:00:49;;;;;;;5.15;1.55;;;12.20;47.90;;;;;;5054383;28;20044;-78
2021/04/16 15:03:14;;;;;;;3.05;1.35;;;12.10;47.20;;;;;;5055484;28;20036;-77
2021/04/16 15:05:40;;;;;;;4.30;1.38;;;12.10;47.40;;;;;;5053658;28;20087;-77
2021/04/16 15:08:08;;;;;;;3.22;1.45;;;12.20;47.50;;;;;;5063224;28;20053;-78
2021/04/16 15:10:48;;;;;;;4.45;1.60;;;12.20;47.30;;;;;;5056614;28;20052;-78
2021/04/16 15:13:21;;;;;;;5.80;1.77;;;12.20;47.40;;;;;;5059015;28;20148;-78
2021/04/16 15:15:57;;;;;;;4.47;1.92;;;12.20;47.10;;;;;;5058293;28;20421;-77
2021/04/16 15:18:23;;;;;;;4.65;1.88;;;12.20;47.40;;;;;;5068965;28;20056;-78
2021/04/16 15:20:49;;;;;;;4.28;1.67;;;12.10;47.80;;;;;;5058384;28;20450;-79
2021/04/16 15:23:17;;;;;;;6.13;2.05;;;12.10;47.50;;;;;;5053589;28;20120;-78
2021/04/16 15:25:45;;;;;;;3.47;1.70;;;12.00;47.90;;;;;;5060224;28;20048;-79
2021/04/16 15:28:21;;;;;;;7.38;1.88;;;11.90;47.90;;;;;;5056921;28;20064;-79
2021/04/16 15:30:47;;;;;;;5.00;1.88;;;11.90;47.90;;;;;;5060356;28;20040;-81